createdAt,value
2022-09-30T00:01:54.359Z,10.50
2022-09-30T00:04:23.639Z,10.40
2022-09-30T00:06:51.999Z,10.40
2022-09-30T00:09:20.217Z,10.40
2022-09-30T00:11:47.496Z,10.30
2022-09-30T00:14:19.309Z,10.30
2022-09-30T00:16:46.435Z,10.30
2022-09-30T00:19:13.832Z,10.30
2022-09-30T00:21:41.099Z,10.20
2022-09-30T00:24:08.399Z,10.20
2022-09-30T00:26:36.462Z,10.20
2022-09-30T00:29:04.455Z,10.10
2022-09-30T00:31:34.088Z,10.10
2022-09-30T00:34:07.583Z,10.10
2022-09-30T00:36:40.065Z,10.10
2022-09-30T00:39:09.105Z,10.00
2022-09-30T00:41:37.366Z,10.10
2022-09-30T00:44:43.342Z,10.10
2022-09-30T00:47:31.642Z,10.00
2022-09-30T00:50:03.226Z,10.00
2022-09-30T00:52:31.844Z,10.00
2022-09-30T00:55:01.202Z,9.90
2022-09-30T00:57:29.308Z,9.90
2022-09-30T00:59:56.335Z,9.90
2022-09-30T01:02:24.953Z,9.90
2022-09-30T01:04:52.287Z,9.90
2022-09-30T01:07:20.693Z,9.90
2022-09-30T01:09:48.694Z,9.90
2022-09-30T01:12:23.371Z,9.80
2022-09-30T01:14:53.588Z,9.80
2022-09-30T01:17:29.700Z,9.80
2022-09-30T01:20:21.784Z,9.70
2022-09-30T01:23:04.815Z,9.70
2022-09-30T01:26:02.752Z,9.70
2022-09-30T01:29:06.902Z,9.70
2022-09-30T01:31:49.964Z,9.70
2022-09-30T01:34:39.062Z,9.60
2022-09-30T01:37:35.617Z,9.60
2022-09-30T01:40:26.324Z,9.60
2022-09-30T01:43:11.841Z,9.60
2022-09-30T01:45:58.549Z,9.60
2022-09-30T01:48:31.434Z,9.60
2022-09-30T01:51:01.721Z,9.50
2022-09-30T01:53:42.013Z,9.50
2022-09-30T01:56:29.533Z,9.50
2022-09-30T01:59:02.667Z,9.50
2022-09-30T02:01:38.620Z,9.50
2022-09-30T02:04:11.277Z,9.50
2022-09-30T02:06:45.437Z,9.50
2022-09-30T02:09:36.272Z,9.40
2022-09-30T02:12:06.462Z,9.40
2022-09-30T02:14:42.365Z,9.40
2022-09-30T02:17:45.440Z,9.40
2022-09-30T02:20:25.521Z,9.40
2022-09-30T02:23:00.440Z,9.30
2022-09-30T02:25:32.907Z,9.30
2022-09-30T02:28:05.335Z,9.30
2022-09-30T02:30:35.652Z,9.30
2022-09-30T02:33:08.021Z,9.30
2022-09-30T02:35:48.807Z,9.30
2022-09-30T02:38:23.533Z,9.30
2022-09-30T02:41:02.406Z,9.20
2022-09-30T02:43:30.433Z,9.30
2022-09-30T02:46:19.329Z,9.20
2022-09-30T02:48:58.303Z,9.20
2022-09-30T02:51:45.317Z,9.20
2022-09-30T02:54:12.225Z,9.20
2022-09-30T02:56:51.097Z,9.20
2022-09-30T02:59:18.668Z,9.10
2022-09-30T03:01:45.933Z,9.10
2022-09-30T03:04:16.176Z,9.10
2022-09-30T03:06:43.433Z,9.10
2022-09-30T03:09:10.515Z,9.10
2022-09-30T03:11:38.404Z,9.10
2022-09-30T03:14:38.604Z,9.10
2022-09-30T03:17:20.908Z,9.10
2022-09-30T03:20:38.668Z,9.10
2022-09-30T03:23:40.147Z,9.10
2022-09-30T03:26:07.242Z,9.10
2022-09-30T03:28:44.704Z,9.10
2022-09-30T03:31:21.081Z,9.10
2022-09-30T03:34:27.608Z,9.10
2022-09-30T03:37:04.623Z,9.10
2022-09-30T03:40:19.280Z,9.10
2022-09-30T03:43:00.832Z,9.00
2022-09-30T03:45:39.617Z,9.10
2022-09-30T03:48:10.970Z,9.10
2022-09-30T03:50:39.849Z,9.00
2022-09-30T03:53:11.188Z,9.00
2022-09-30T03:55:48.853Z,9.00
2022-09-30T03:58:19.017Z,9.00
2022-09-30T04:00:51.306Z,9.00
2022-09-30T04:03:19.858Z,9.00
2022-09-30T04:05:47.923Z,9.10
2022-09-30T04:08:15.073Z,9.10
2022-09-30T04:10:43.921Z,9.00
2022-09-30T04:13:11.731Z,9.10
2022-09-30T04:15:40.655Z,9.10
2022-09-30T04:18:08.138Z,9.10
2022-09-30T04:20:35.147Z,9.10
2022-09-30T04:23:02.747Z,9.10
2022-09-30T04:25:29.994Z,9.10
2022-09-30T04:27:57.450Z,9.10
2022-09-30T04:30:27.249Z,9.10
2022-09-30T04:32:56.094Z,9.10
2022-09-30T04:35:23.634Z,9.10
2022-09-30T04:37:51.041Z,9.10
2022-09-30T04:40:18.172Z,9.10
2022-09-30T04:42:45.232Z,9.10
2022-09-30T04:45:14.605Z,9.20
2022-09-30T04:47:47.618Z,9.20
2022-09-30T04:50:15.644Z,9.30
2022-09-30T04:52:43.872Z,9.30
2022-09-30T04:55:11.923Z,9.30
2022-09-30T04:57:39.258Z,9.40
2022-09-30T05:00:09.385Z,9.50
2022-09-30T05:02:36.626Z,9.50
2022-09-30T05:05:04.200Z,9.50
2022-09-30T05:07:32.122Z,9.60
2022-09-30T05:09:59.436Z,9.60
2022-09-30T05:12:26.539Z,9.60
2022-09-30T05:14:53.584Z,9.60
2022-09-30T05:17:21.310Z,9.60
2022-09-30T05:19:48.281Z,9.60
2022-09-30T05:22:15.671Z,9.60
2022-09-30T05:24:42.624Z,9.60
2022-09-30T05:27:09.769Z,9.60
2022-09-30T05:29:36.760Z,9.60
2022-09-30T05:32:03.783Z,9.50
2022-09-30T05:34:31.038Z,9.50
2022-09-30T05:36:58.053Z,9.50
2022-09-30T05:39:25.034Z,9.50
2022-09-30T05:41:52.313Z,9.50
2022-09-30T05:44:19.509Z,9.50
2022-09-30T05:46:47.965Z,9.50
2022-09-30T05:49:14.935Z,9.50
2022-09-30T05:51:42.013Z,9.50
2022-09-30T05:54:10.957Z,9.50
2022-09-30T05:56:40.971Z,9.50
2022-09-30T05:59:08.200Z,9.50
2022-09-30T06:01:35.276Z,9.50
2022-09-30T06:04:02.468Z,9.50
2022-09-30T06:06:30.361Z,9.50
2022-09-30T06:08:57.504Z,9.60
2022-09-30T06:11:25.184Z,9.60
2022-09-30T06:13:52.418Z,9.60
2022-09-30T06:16:19.816Z,9.60
2022-09-30T06:18:47.266Z,9.60
2022-09-30T06:21:16.276Z,9.70
2022-09-30T06:23:43.658Z,9.60
2022-09-30T06:26:13.490Z,9.70
2022-09-30T06:28:41.598Z,9.70
2022-09-30T06:31:09.310Z,9.70
2022-09-30T06:33:36.326Z,9.70
2022-09-30T06:36:04.860Z,9.70
2022-09-30T06:38:33.429Z,9.80
2022-09-30T06:41:01.023Z,9.80
2022-09-30T06:43:28.224Z,9.80
2022-09-30T06:46:10.738Z,9.80
2022-09-30T06:48:42.147Z,9.90
2022-09-30T06:51:11.241Z,9.90
2022-09-30T06:53:40.301Z,10.00
2022-09-30T06:56:07.497Z,10.00
2022-09-30T06:58:34.569Z,10.10
2022-09-30T07:01:04.463Z,10.20
2022-09-30T07:03:34.853Z,10.20
2022-09-30T07:06:35.644Z,10.20
2022-09-30T07:09:27.993Z,10.30
2022-09-30T07:11:55.017Z,10.30
2022-09-30T07:14:24.131Z,10.30
2022-09-30T07:16:53.749Z,10.40
2022-09-30T07:19:23.158Z,10.40
2022-09-30T07:21:50.543Z,10.40
2022-09-30T07:24:18.181Z,10.50
2022-09-30T07:26:45.599Z,10.50
2022-09-30T07:29:13.979Z,10.50
2022-09-30T07:31:41.495Z,10.60
2022-09-30T07:34:09.691Z,10.60
2022-09-30T07:36:38.671Z,10.60
2022-09-30T07:39:08.505Z,10.60
2022-09-30T07:41:39.918Z,10.60
2022-09-30T07:44:14.746Z,10.70
2022-09-30T07:46:42.790Z,10.60
2022-09-30T07:49:14.938Z,10.70
2022-09-30T07:51:46.271Z,10.70
2022-09-30T07:54:19.405Z,10.70
2022-09-30T07:59:37.983Z,10.70
2022-09-30T08:02:11.001Z,10.80
2022-09-30T08:04:42.859Z,10.80
2022-09-30T08:07:11.813Z,10.80
2022-09-30T08:09:38.938Z,10.80
2022-09-30T08:12:06.119Z,10.90
2022-09-30T08:14:33.608Z,10.90
2022-09-30T08:17:01.065Z,10.90
2022-09-30T08:19:30.187Z,11.00
2022-09-30T08:21:57.351Z,11.00
2022-09-30T08:24:25.668Z,11.00
2022-09-30T08:26:52.920Z,11.00
2022-09-30T08:29:35.631Z,11.10
2022-09-30T08:32:07.318Z,11.10
2022-09-30T08:34:35.898Z,11.10
2022-09-30T08:37:08.656Z,11.10
2022-09-30T08:39:37.863Z,11.10
2022-09-30T08:42:37.925Z,11.20
2022-09-30T08:45:26.216Z,11.20
2022-09-30T08:48:09.580Z,11.20
2022-09-30T08:50:41.634Z,11.20
2022-09-30T08:53:21.126Z,11.20
2022-09-30T08:55:48.245Z,11.20
2022-09-30T08:58:28.893Z,11.30
2022-09-30T09:01:02.545Z,11.30
2022-09-30T09:03:33.111Z,11.30
2022-09-30T09:06:35.175Z,11.30
2022-09-30T09:09:20.377Z,11.30
2022-09-30T09:12:12.589Z,11.30
2022-09-30T09:15:03.805Z,11.30
2022-09-30T09:18:18.347Z,11.40
2022-09-30T09:20:48.186Z,11.30
2022-09-30T09:23:15.249Z,11.40
2022-09-30T09:25:44.811Z,11.40
2022-09-30T09:28:40.926Z,11.40
2022-09-30T09:31:14.187Z,11.40
2022-09-30T09:33:41.300Z,11.40
2022-09-30T09:36:16.850Z,11.40
2022-09-30T09:39:06.407Z,11.50
2022-09-30T09:42:02.480Z,11.50
2022-09-30T09:44:44.062Z,11.50
2022-09-30T09:47:17.346Z,11.50
2022-09-30T09:49:59.324Z,11.60
2022-09-30T09:52:32.434Z,11.60
2022-09-30T09:55:00.897Z,11.60
2022-09-30T09:57:32.412Z,11.60
2022-09-30T10:00:26.113Z,11.60
2022-09-30T10:03:04.634Z,11.70
2022-09-30T10:05:39.901Z,11.70
2022-09-30T10:08:16.365Z,11.70
2022-09-30T10:10:49.286Z,11.70
2022-09-30T10:13:20.303Z,11.70
2022-09-30T10:15:49.826Z,11.80
2022-09-30T10:18:24.890Z,11.70
2022-09-30T10:20:55.828Z,11.80
2022-09-30T10:23:28.472Z,11.80
2022-09-30T10:26:03.672Z,11.80
2022-09-30T10:28:33.937Z,11.80
2022-09-30T10:31:12.187Z,11.90
2022-09-30T10:33:45.046Z,11.90
2022-09-30T10:36:17.340Z,11.90
2022-09-30T10:39:00.003Z,12.00
2022-09-30T10:41:32.927Z,12.00
2022-09-30T10:44:03.823Z,12.00
2022-09-30T10:46:35.951Z,12.10
2022-09-30T10:49:10.816Z,12.10
2022-09-30T10:51:38.542Z,12.20
2022-09-30T10:54:06.570Z,12.20
2022-09-30T10:56:43.140Z,12.20
2022-09-30T10:59:21.290Z,12.20
2022-09-30T11:02:00.072Z,12.20
2022-09-30T11:04:43.745Z,12.30
2022-09-30T11:07:40.689Z,12.20
2022-09-30T11:10:46.306Z,12.30
2022-09-30T11:13:24.309Z,12.30
2022-09-30T11:16:22.018Z,12.30
2022-09-30T11:19:21.272Z,12.30
2022-09-30T11:22:25.761Z,12.30
2022-09-30T11:24:54.583Z,12.30
2022-09-30T11:28:10.444Z,12.40
2022-09-30T11:30:48.357Z,12.40
2022-09-30T11:33:53.311Z,12.40
2022-09-30T11:36:50.588Z,12.40
2022-09-30T11:39:55.193Z,12.40
2022-09-30T11:42:37.094Z,12.50
2022-09-30T11:45:20.007Z,12.50
2022-09-30T11:48:41.176Z,12.50
2022-09-30T11:51:58.310Z,12.50
2022-09-30T11:54:59.084Z,12.50
2022-09-30T11:57:35.037Z,12.50
2022-09-30T12:00:08.635Z,12.50
2022-09-30T12:02:47.637Z,12.60
2022-09-30T12:05:18.912Z,12.60
2022-09-30T12:08:36.591Z,12.50
2022-09-30T12:11:14.812Z,12.50
2022-09-30T12:13:51.900Z,12.60
2022-09-30T12:16:24.055Z,12.60
2022-09-30T12:19:25.572Z,12.60
2022-09-30T12:22:33.533Z,12.60
2022-09-30T12:25:01.934Z,12.60
2022-09-30T12:27:39.126Z,12.60
2022-09-30T12:30:20.541Z,12.60
2022-09-30T12:33:14.149Z,12.60
2022-09-30T12:36:15.766Z,12.60
2022-09-30T12:39:01.405Z,12.60
2022-09-30T12:41:49.492Z,12.60
2022-09-30T12:44:44.512Z,12.50
2022-09-30T12:47:19.912Z,12.50
2022-09-30T12:49:48.752Z,12.50
2022-09-30T12:52:20.300Z,12.50
2022-09-30T12:55:01.419Z,12.50
2022-09-30T12:57:32.158Z,12.40
2022-09-30T13:00:23.102Z,12.40
2022-09-30T13:02:56.873Z,12.30
2022-09-30T13:05:26.877Z,12.30
2022-09-30T13:08:17.959Z,12.30
2022-09-30T13:10:56.012Z,12.30
2022-09-30T13:13:23.949Z,12.20
2022-09-30T13:16:03.726Z,12.20
2022-09-30T13:18:30.749Z,12.10
2022-09-30T13:21:08.281Z,12.10
2022-09-30T13:23:36.331Z,12.10
2022-09-30T13:26:07.176Z,12.00
2022-09-30T13:28:40.468Z,12.00
2022-09-30T13:31:24.413Z,12.00
2022-09-30T13:34:22.783Z,12.00
2022-09-30T13:36:52.471Z,11.90
2022-09-30T13:39:25.775Z,11.90
2022-09-30T13:42:18.556Z,11.90
2022-09-30T13:45:03.959Z,11.80
2022-09-30T13:47:39.344Z,11.80
2022-09-30T13:50:09.188Z,11.80
2022-09-30T13:52:38.263Z,11.80
2022-09-30T13:55:16.983Z,11.80
2022-09-30T13:58:02.403Z,11.80
2022-09-30T14:00:55.844Z,11.70
2022-09-30T14:03:57.102Z,11.80
2022-09-30T14:07:01.487Z,11.80
2022-09-30T14:09:34.438Z,11.70
2022-09-30T14:12:20.122Z,11.70
2022-09-30T14:15:07.729Z,11.70
2022-09-30T14:17:58.753Z,11.60
2022-09-30T14:25:54.998Z,11.60
2022-09-30T14:28:51.996Z,11.60
2022-09-30T14:31:19.785Z,11.60
2022-09-30T14:33:50.158Z,11.60
2022-09-30T14:36:20.306Z,11.60
2022-09-30T14:38:52.987Z,11.50
2022-09-30T14:41:23.572Z,11.50
2022-09-30T14:43:55.373Z,11.50
2022-09-30T14:46:39.038Z,11.50
2022-09-30T14:49:09.843Z,11.50
2022-09-30T14:51:47.204Z,11.50
2022-09-30T14:54:22.610Z,11.50
2022-09-30T14:56:51.019Z,11.50
2022-09-30T14:59:37.078Z,11.50
2022-09-30T15:02:22.292Z,11.50
2022-09-30T15:04:59.175Z,11.50
2022-09-30T15:07:28.340Z,11.50
2022-09-30T15:10:01.734Z,11.50
2022-09-30T15:12:28.992Z,11.50
2022-09-30T15:14:58.375Z,11.50
2022-09-30T15:17:37.812Z,11.50
2022-09-30T15:20:28.167Z,11.50
2022-09-30T15:22:57.937Z,11.50
2022-09-30T15:25:25.004Z,11.50
2022-09-30T15:27:52.754Z,11.60
2022-09-30T15:30:19.871Z,11.60
2022-09-30T15:32:51.938Z,11.60
2022-09-30T15:35:21.881Z,11.60
2022-09-30T15:37:49.486Z,11.60
2022-09-30T15:40:40.506Z,11.60
2022-09-30T15:43:16.412Z,11.70
2022-09-30T15:45:46.314Z,11.70
2022-09-30T15:48:17.051Z,11.70
2022-09-30T15:50:49.958Z,11.70
2022-09-30T15:53:25.456Z,11.80
2022-09-30T15:56:00.281Z,11.80
2022-09-30T15:58:32.665Z,11.80
2022-09-30T16:06:32.355Z,11.80
2022-09-30T16:26:55.765Z,11.90
2022-09-30T16:29:24.275Z,12.00
2022-09-30T16:31:54.567Z,12.10
2022-09-30T16:34:29.594Z,12.10
2022-09-30T16:39:32.290Z,12.10
2022-09-30T16:41:59.294Z,12.20
2022-09-30T16:44:26.379Z,12.20
2022-09-30T16:46:54.774Z,12.20
2022-09-30T16:49:27.070Z,12.20
2022-09-30T16:52:01.571Z,12.20
2022-09-30T16:54:41.074Z,12.20
2022-09-30T16:59:49.054Z,12.30
2022-09-30T17:02:17.038Z,12.30
2022-09-30T17:04:45.584Z,12.30
2022-09-30T17:07:14.869Z,12.30
2022-09-30T17:09:46.097Z,12.30
2022-09-30T17:12:13.646Z,12.40
2022-09-30T17:14:44.131Z,12.40
2022-09-30T17:17:13.679Z,12.40
2022-09-30T17:19:41.012Z,12.40
2022-09-30T17:22:07.898Z,12.40
2022-09-30T17:24:34.805Z,12.40
2022-09-30T17:27:03.246Z,12.40
2022-09-30T17:29:32.703Z,12.50
2022-09-30T17:32:00.107Z,12.50
2022-09-30T17:34:30.329Z,12.50
2022-09-30T17:36:57.390Z,12.50
2022-09-30T18:06:54.733Z,12.50
2022-09-30T18:09:23.777Z,12.50
2022-09-30T18:11:50.827Z,12.40
2022-09-30T18:34:06.421Z,12.50
2022-09-30T18:36:33.411Z,12.50
2022-09-30T18:39:02.236Z,12.50
